Timeline UpdatesTrip UpdatesNews PostsPvt PostsTravel TipsAdmin PostsConv PostsFollowed PostsChat RequestsBlog PostsPNR Posts

Disclaimer
Search
 
 
Wed Sep 3, 2014 05:18:41 ISTHomeTrainsΣChainsAtlasPNRForumGalleryNewsFAQTripsMembersLoginFeedback
No Recent News for this Train
Other Trains in the News **new
Latest...
Stops at Vallur Halt wef 16/5/14 at 16.20 hrs
Mon May 19, 2014 (07:55PM)
⇐ Return Journey: Train# 57623

57624/Guntur Kacheguda Passenger (UnReserved)

OLD Time-Table. Click here to UPDATE TT
Aug 09 (9:26PM)
Change Departure Station:
Change Arrival Station:
Post a Train Travel TipPost a Train Travel Tip **new
Post a Comment/Question/Picture/VideoPost a Comment/Question/Picture/Video
Pantry/Catering
✕ NO Pantry Car
✓ Catering Avbl
Loco/Rake Reversals
DHNE/Dhone Junction (3);
RSA - Rake Sharing
57623-57640-57639-57624
Rake/Coach Composition
The Sleeper Class service with effect from 3rd December 2010; Now these coaches will have Ten General Seond Class and two Luggage Cum Brake Vans.
Loco
News    PNR    Forum    Time-Table    Availability    Fare Chart    Map    Arr/Dep History    Trips    Gallery    ΣChains    X/O    Timeline    
Travel Time: 8h 3m    40 halts    Distance: 279 km    Avg Speed: 34 km/hr
Type: Passenger
Zone: SCR/South Central
Departs @ 14:17
Platform# 1
SMTWTFS
Bogolu/BVO 
Arrives @ 22:20
Platform# 2
SMTWTFS
Hyderabad Kacheguda/KCG 

40 halts. 46 intermediate Stations between Bogolu and Hyderabad Kacheguda

Show ALL intermediate Stations  

#CodeStation NameX/OArrivesAvgDepartsAvgHaltPFDay#KmSpeedElevZoneAddress
1GNTGuntur Junction (7)  -05:15-31-344.02737mSCRGuntur, Andhra Pradesh
2NLPDNallapadu Junction (3)  05:26-05:27-1m--1-339.13846mSCRPhone Number : 0863-2119153, Andhra Pradesh
3PRCAPerecherla (1)  05:37-05:38-1m11-332.74875mSCRPerecherlaPRCA Station Phone Number : 0863-2290580, Andhra Pradesh
4PPMPhirangipuram  05:50-05:51-1m--1-323.15462mSCRPhirangipuram, Andhra Pradesh
5NDPUNudurupadu  05:59-06:00-1m--1-315.94649mSCRCoastal Andhra Region, Andhra Pradesh
6STURSatulurX  06:08-06:09-1m--1-309.85959mSCRGuntur, Andhra Pradesh
7NRTNarasaraopet (3)  06:20-06:22-2m--1-299.06774mSCRNarsaraopet ph.no 08647-223131, Andhra Pradesh
8MUKMunumaka  06:29-06:30-1m--1-291.25769mSCR08647-219555, Andhra Pradesh
9SABSantamagulur  06:39-06:40-1m--1-282.74175mSCRGuntur, Andhra Pradesh
10VLEVellalcheruvu Halt  06:45-06:46-1m--1-279.26087mSCRVellalacheruvu, Andhra Pradesh
11SYMSavalyapuram  06:54-06:55-1m--1-271.23987mSCRGuntur Phone Number : 08646-259211, Andhra Pradesh
12VKNVinukonda (1)  07:10-07:12-2m11-261.57595mSCRVinukonda, Andhra Pradesh
13CEMCheekategalapalem  07:19-07:20-1m--1-252.73878mSCRVinukonda, Andhra Pradesh
14GKMGundlakamma (1)  07:27-07:28-1m11-248.36191mSCRVinukonda, Andhra Pradesh
15KCDKurichedu (1)  07:39-07:40-1m11-237.168121mSCRPrakasam dt, Andhra Pradesh
16POOPotlapadu (1)  07:46-07:47-1m11-230.346147mSCRAndhra Pradesh, Andhra Pradesh
17DKDDonakonda (3)  07:55-08:00-5m--1-224.166154mSCRPhone:08408-272037, Andhra Pradesh
18GJJGajjelakonda (1)  08:10-08:11-1m11-213.262153mSCRPrakasam. Telephone 08499-247233, Andhra Pradesh
19MRKMarkapur Road (2)  08:24-08:26-2m11-199.855156mSCRmarkapur road ph.no 08596-222028, Andhra Pradesh
20TLUTarlupadu (1)X  08:38-08:39-1m11-188.964164mSCRPhone Number : 08499-246232, Andhra Pradesh
21CBMCumbum (1)  08:53-08:55-2m11-174.051199mSCRprakasham dist, Andhra Pradesh
22JBKJaggambotla Krishnapuram  09:03-09:04-1m--1-167.270200mSCRPhone;08406-200100, Andhra Pradesh
23SDVSomidevipalle  09:14-09:15-1m--1-155.553225mSCRPhone Number : 9441901913, Andhra Pradesh
24GMAGudimettaX  09:20-09:21-1m--1-151.042231mSCRBestavaripeta, Andhra Pradesh
25GIDGiddalur (2)  09:36-09:38-2m--1-140.673269mSCRGiddalur ph.no 08405-242003, Andhra Pradesh
26KSTEKrishnamsetty Palle  09:42-09:43-1m--1-135.725278mSCRPrakasam, Andhra Pradesh
27DMTDiguvametta  09:59-10:00-1m--1-129.044315mSCRRayalaseema Region, Andhra Pradesh
28CMZChelama (1)X  10:23-10:24-1m11-112.343314mSCRKurnool, Andhra Pradesh
29GZLGazulapalliO  10:39-10:40-1m--1-101.613238mSCRKurnool, Andhra Pradesh
30NDLNandyal (3)  11:45-11:50-5m--1-87.381216mSCRPhone Number : 9247019958, Andhra Pradesh
31PNMPanyam (2)X  12:01-12:02-1m--1-72.448227mSCRKurnool Dist., Andhra Pradesh
32KEFKrishnama Kona (1)  12:14-12:15-1m11-62.861314mSCRCement Nagar Tammarajupalli Rd, Andhra Pradesh
33BEYBugganipalli Cement NagarX  12:24-12:25-1m--1-53.650386mSCRKurnool, Andhra Pradesh
34BMHBetamcherla (2)  12:33-12:34-1m--1-47.066425mSCRBetamcherla, Andhra Pradesh
35RGMRangapuram  12:44-12:45-1m--1-36.070440mSCRKurnool, Andhra Pradesh
36MLKMalkapuram  12:55-12:56-1m--1-24.320459mSCRKurnool, Andhra Pradesh
37DHNEDhone Junction (3)↵¶13:35-14:05-30m--1-11.261425mSCR518222, Andhra Pradesh
38BVO»Bogolu (1)»  14:16-14:17-1m110.054371mSCRBogolu Station, Andhra Pradesh
39VDIVeldurti (2)X  14:27-14:28-1m--19.067341mSCRVeldurthi, Andhra Pradesh
40UKDUlindakonda (1)  14:39-14:40-1m1121.275329mSCRUlindakonda, Andhra Pradesh
41DUUDupadu (1)  14:49-14:50-1m1132.555310mSCRRayalaseema Region, Andhra Pradesh
42KOLAKotla (1)  14:59-15:00-1m1140.76288mSCRKurnool, Andhra Pradesh
43KRNTKurnool City (3)X  15:25-15:35-10m--143.249293mSCRKurnool Ph:08518-220110, Andhra Pradesh
44ALPRAlampur Road (1)  15:44-15:45-1m1150.537308mSCR, Telangana
45SBBJSri Bala Brahmeswara Jogulamba Halt (1)X  15:49-15:50-1m1153.044312mSCRMahabubnagar Dist., Telangana
46MOAManopad (1)  16:09-16:10-1m1166.824310mSCRMahbubnagar Dist., Telangana
47VAHValluru Halt  16:20-16:21-1m--170.9141317mSCRVallur Road, Telangana
48IKIItikyala (1)  16:25-16:26-1m1180.330324mSCR, Telangana
49PDNAPeddadinne (1)  16:33-16:34-1m1183.898319mSCR, Telangana
50PDOPoodoor (1)  16:38-16:39-1m1190.361330mSCRMahabubnagar Dist 509125, Telangana
51GWDGadwal Junction (2)  16:47-16:48-1m--198.556327mSCRMahbubnagar Dist., Telangana
52ARPLArepalli Halt (1)  16:57-16:58-1m11106.941301mSCRMahbubnagar Dist., Telangana
53SRNRSriramnagar (2)X  17:04-17:05-1m--1111.160311mSCRMahbubnagar Dist., Telangana
54AJKAjjakolu (1)  17:10-17:11-1m11116.035316mSCR, Telangana
55WPRWanaparti Road (2)  17:18-17:19-1m--1120.172330mSCRMahbubnagar Dist., Telangana
56KONNKonnur (1)X  17:23-17:24-1m11124.964346mSCRMahbubnagar Dist., Telangana
57KXIKurumurthi (1)  17:32-17:33-1m11133.530361mSCRMahbubnagar Dist., Telangana
58KQQKaukuntla (1)X  17:43-17:44-1m11138.571372mSCR, Telangana
59DKCDevarkadra (1)  17:53-17:54-1m11149.192390mSCRMahbubnagar Dist., Telangana
60KTKAKotakadra (1)  17:58-17:59-1m11155.252409mSCRMahbubnagar Dist., Telangana
61MQNManyamkonda (1)X  18:04-18:05-1m11159.662410mSCRMahbubnagar Dist., Telangana
62MHBTMahbubnagar Town Halt (1)  18:16-18:17-1m11171.08500mSCRMahbubnagar, Telangana
63MBNRMahbubnagar (3)  18:35-18:40-5m31173.561500mSCRMahbubnagar, Telangana
64YNGYenugonda (1)X  18:44-18:45-1m11177.670508mSCRMahabubnagar Dist., Telangana
65DTPDivitipalli (2)  18:50-18:51-1m--1183.458520mSCRMahbubnagar Dist., Telangana
66JCLJadcherla (3)  18:59-19:00-1m--1191.165545mSCR509301, Telangana
67GLYGollapally (1)X  19:07-19:08-1m11198.766556mSCR, Telangana
68RRGARanga Reddy Guda (1)  19:17-19:18-1m11208.520564mSCR, Telangana
69BABRBalanagar (3)  19:34-19:35-1m--1214.021566mSCR, Telangana
70SHNRShadnagar (3)  20:14-20:15-1m--1227.569648mSCRMahabubnagar Dist., Telangana
71TMXTimmapur (2)X  20:28-20:29-1m--1242.528582mSCRMahabubnagar Dist., Telangana
72URUmdanagar (3)  21:04-21:05-1m--1258.965581mSCRHyderabad, Telangana
73BDVLBudvel (2)X  21:11-21:12-1m--1265.418556mSCRHyderabad, Telangana
74FMFalaknuma (3)  21:34-21:35-1m--1272.137523mSCRHyderabad, Telangana
75HPGHuppuguda (2)  21:37-21:38-1m--1273.349520mSCRHyderabad, Telangana
76YKAYakutpura (2)  21:41-21:42-1m--1275.823505mSCRHyderabad, Telangana
77DQRDabirpura (2)  21:44-21:45-1m--1276.538500mSCRHyderabad, Telangana
78MXTMalakpet (2)  21:47-21:48-1m11277.83494mSCRHyderabad, Telangana
79KCG•Hyderabad Kacheguda (5)•  22:20--21279.4-494mSCRHyderabad - 500027, Telangana
Scroll to Top
Scroll to Bottom